Shelbyville, Indiana
Current Conditions -  °F | °C
As of 10:53 PM on Saturday 22 Nov 2014 (Local Time) from KGEZ Reporting Station
Overcast Overcast  
Wind Chill: 52°   Ceiling: 5500
Heat Index: 52°   Visibility: 10mi
Dew Point: 38°   Wind: 9mph
Humidity: 59%   Direction: 180°S
Pressure: 30.02"   Gusts: NA
Location:  39.52°N, 85.78°W
Report Text: KGEZ 230353Z AUTO 18008KT 10SM OVC055 11/03 A3002 RMK AO2 RAB34E43 SLP166 P0000 T01110033
Loading
Personal Weather Stations






























Interactive Weather Map New forecast layout! Learn more

10-Day Weather Forecast

Advertisements
Track Severe Weather on mobile